sensor_id;sensor_type;location;lat;lon;timestamp;pressure;altitude;pressure_sealevel;temperature;humidity
25638;BME280;13496;51.040;13.680;2022-07-18T00:00:37;100666.63;;;24.92;35.91
25638;BME280;13496;51.040;13.680;2022-07-18T00:05:39;100662.53;;;24.90;36.21
25638;BME280;13496;51.040;13.680;2022-07-18T00:10:41;100667.84;;;24.90;35.74
25638;BME280;13496;51.040;13.680;2022-07-18T00:15:42;100663.38;;;24.83;35.71
25638;BME280;13496;51.040;13.680;2022-07-18T00:20:44;100659.31;;;24.81;36.06
25638;BME280;13496;51.040;13.680;2022-07-18T00:25:46;100662.16;;;24.79;36.28
25638;BME280;13496;51.040;13.680;2022-07-18T00:30:47;100654.41;;;24.78;36.17
25638;BME280;13496;51.040;13.680;2022-07-18T00:35:49;100665.84;;;24.78;36.40
25638;BME280;13496;51.040;13.680;2022-07-18T00:40:51;100658.69;;;24.79;36.09
25638;BME280;13496;51.040;13.680;2022-07-18T00:45:53;100665.03;;;24.78;35.97
25638;BME280;13496;51.040;13.680;2022-07-18T00:50:54;100662.16;;;24.73;36.21
25638;BME280;13496;51.040;13.680;2022-07-18T00:55:56;100665.84;;;24.72;36.44
25638;BME280;13496;51.040;13.680;2022-07-18T01:00:58;100676.44;;;24.72;36.44
25638;BME280;13496;51.040;13.680;2022-07-18T01:06:19;100687.06;;;24.72;35.97
25638;BME280;13496;51.040;13.680;2022-07-18T01:11:20;100687.69;;;24.67;36.30
25638;BME280;13496;51.040;13.680;2022-07-18T01:16:22;100685.84;;;24.68;36.23
25638;BME280;13496;51.040;13.680;2022-07-18T01:21:24;100686.66;;;24.61;36.31
25638;BME280;13496;51.040;13.680;2022-07-18T01:26:26;100688.50;;;24.61;36.80
25638;BME280;13496;51.040;13.680;2022-07-18T01:31:28;100681.78;;;24.58;36.45
25638;BME280;13496;51.040;13.680;2022-07-18T01:36:34;100680.94;;;24.65;36.39
25638;BME280;13496;51.040;13.680;2022-07-18T01:41:36;100687.09;;;24.58;36.27
25638;BME280;13496;51.040;13.680;2022-07-18T01:46:38;100688.31;;;24.56;36.61
25638;BME280;13496;51.040;13.680;2022-07-18T01:51:39;100682.19;;;24.55;36.50
25638;BME280;13496;51.040;13.680;2022-07-18T01:56:41;100679.31;;;24.57;36.58
25638;BME280;13496;51.040;13.680;2022-07-18T02:01:44;100672.97;;;24.58;36.44
25638;BME280;13496;51.040;13.680;2022-07-18T02:06:46;100665.66;;;24.40;35.77
25638;BME280;13496;51.040;13.680;2022-07-18T02:11:47;100669.09;;;24.34;35.80
25638;BME280;13496;51.040;13.680;2022-07-18T02:16:49;100670.72;;;24.35;36.01
25638;BME280;13496;51.040;13.680;2022-07-18T02:21:51;100679.06;;;24.32;35.77
25638;BME280;13496;51.040;13.680;2022-07-18T02:26:53;100679.28;;;24.30;35.94
25638;BME280;13496;51.040;13.680;2022-07-18T02:31:56;100676.84;;;24.35;36.29
25638;BME280;13496;51.040;13.680;2022-07-18T02:36:57;100675.84;;;24.36;36.00
25638;BME280;13496;51.040;13.680;2022-07-18T02:42:00;100673.56;;;24.27;35.87
25638;BME280;13496;51.040;13.680;2022-07-18T02:47:02;100666.66;;;24.26;35.95
25638;BME280;13496;51.040;13.680;2022-07-18T02:52:06;100662.97;;;24.20;36.32
25638;BME280;13496;51.040;13.680;2022-07-18T02:57:08;100665.44;;;24.22;36.23
25638;BME280;13496;51.040;13.680;2022-07-18T03:02:10;100671.75;;;24.27;36.56
25638;BME280;13496;51.040;13.680;2022-07-18T03:07:12;100669.09;;;24.27;36.47
25638;BME280;13496;51.040;13.680;2022-07-18T03:12:14;100678.66;;;24.28;36.55
25638;BME280;13496;51.040;13.680;2022-07-18T03:17:16;100671.56;;;24.29;36.49
25638;BME280;13496;51.040;13.680;2022-07-18T03:22:17;100670.72;;;24.28;36.85
25638;BME280;13496;51.040;13.680;2022-07-18T03:27:19;100667.06;;;24.29;36.66
25638;BME280;13496;51.040;13.680;2022-07-18T03:32:21;100673.56;;;24.27;36.61
25638;BME280;13496;51.040;13.680;2022-07-18T03:37:22;100674.59;;;24.26;36.67
25638;BME280;13496;51.040;13.680;2022-07-18T03:42:24;100674.59;;;24.26;36.64
25638;BME280;13496;51.040;13.680;2022-07-18T03:47:26;100676.44;;;24.25;36.74
25638;BME280;13496;51.040;13.680;2022-07-18T03:52:28;100682.75;;;24.24;36.82
25638;BME280;13496;51.040;13.680;2022-07-18T03:57:29;100682.97;;;24.23;36.81
25638;BME280;13496;51.040;13.680;2022-07-18T04:02:31;100677.66;;;24.23;36.71
25638;BME280;13496;51.040;13.680;2022-07-18T04:07:33;100680.50;;;24.21;36.81
25638;BME280;13496;51.040;13.680;2022-07-18T04:12:34;100677.03;;;24.21;36.54
25638;BME280;13496;51.040;13.680;2022-07-18T04:17:45;100675.19;;;24.21;36.91
25638;BME280;13496;51.040;13.680;2022-07-18T04:22:55;100679.28;;;24.17;36.82
25638;BME280;13496;51.040;13.680;2022-07-18T04:27:57;100673.16;;;24.17;36.79
25638;BME280;13496;51.040;13.680;2022-07-18T04:33:02;100679.28;;;24.17;36.91
25638;BME280;13496;51.040;13.680;2022-07-18T04:38:05;100677.84;;;24.14;36.75
25638;BME280;13496;51.040;13.680;2022-07-18T04:43:08;100676.03;;;24.15;36.88
25638;BME280;13496;51.040;13.680;2022-07-18T04:48:09;100682.53;;;24.12;36.79
25638;BME280;13496;51.040;13.680;2022-07-18T04:53:11;100677.63;;;24.09;36.76
25638;BME280;13496;51.040;13.680;2022-07-18T04:58:13;100673.75;;;24.12;37.00
25638;BME280;13496;51.040;13.680;2022-07-18T05:03:14;100676.19;;;24.13;36.88
25638;BME280;13496;51.040;13.680;2022-07-18T05:08:16;100681.50;;;24.13;36.93
25638;BME280;13496;51.040;13.680;2022-07-18T05:13:18;100677.22;;;24.12;36.85
25638;BME280;13496;51.040;13.680;2022-07-18T05:18:19;100683.97;;;24.08;36.65
25638;BME280;13496;51.040;13.680;2022-07-18T05:23:21;100678.66;;;24.08;36.49
25638;BME280;13496;51.040;13.680;2022-07-18T05:28:26;100672.31;;;24.09;36.70
25638;BME280;13496;51.040;13.680;2022-07-18T05:33:27;100680.69;;;24.06;36.68
25638;BME280;13496;51.040;13.680;2022-07-18T05:38:29;100681.31;;;24.08;36.68
25638;BME280;13496;51.040;13.680;2022-07-18T05:43:31;100673.34;;;24.08;36.53
25638;BME280;13496;51.040;13.680;2022-07-18T05:48:32;100665.59;;;24.07;36.57
25638;BME280;13496;51.040;13.680;2022-07-18T05:53:34;100657.66;;;24.07;36.50
25638;BME280;13496;51.040;13.680;2022-07-18T05:58:36;100659.47;;;24.06;36.65
25638;BME280;13496;51.040;13.680;2022-07-18T06:03:37;100661.72;;;24.09;36.34
25638;BME280;13496;51.040;13.680;2022-07-18T06:08:39;100659.06;;;24.09;36.69
25638;BME280;13496;51.040;13.680;2022-07-18T06:13:42;100655.59;;;24.09;36.70
25638;BME280;13496;51.040;13.680;2022-07-18T06:18:44;100657.22;;;24.10;36.90
25638;BME280;13496;51.040;13.680;2022-07-18T06:23:45;100652.94;;;24.09;36.78
25638;BME280;13496;51.040;13.680;2022-07-18T06:28:50;100657.44;;;24.08;36.64
25638;BME280;13496;51.040;13.680;2022-07-18T06:33:51;100656.81;;;24.06;36.90
25638;BME280;13496;51.040;13.680;2022-07-18T06:38:53;100665.41;;;24.08;36.50
25638;BME280;13496;51.040;13.680;2022-07-18T06:43:55;100647.88;;;24.07;36.72
25638;BME280;13496;51.040;13.680;2022-07-18T06:48:56;100658.47;;;24.07;36.65
25638;BME280;13496;51.040;13.680;2022-07-18T06:53:58;100657.66;;;24.07;37.15
25638;BME280;13496;51.040;13.680;2022-07-18T06:59:00;100660.09;;;24.08;36.92
25638;BME280;13496;51.040;13.680;2022-07-18T07:04:02;100658.47;;;24.07;36.88
25638;BME280;13496;51.040;13.680;2022-07-18T07:09:05;100661.72;;;24.09;36.81
25638;BME280;13496;51.040;13.680;2022-07-18T07:14:06;100655.41;;;24.10;36.95
25638;BME280;13496;51.040;13.680;2022-07-18T07:19:08;100660.72;;;24.10;36.84
25638;BME280;13496;51.040;13.680;2022-07-18T07:24:10;100653.38;;;24.12;37.04
25638;BME280;13496;51.040;13.680;2022-07-18T07:29:12;100658.66;;;24.12;36.90
25638;BME280;13496;51.040;13.680;2022-07-18T07:34:13;100657.47;;;24.15;36.91
25638;BME280;13496;51.040;13.680;2022-07-18T07:39:16;100658.28;;;24.15;36.82
25638;BME280;13496;51.040;13.680;2022-07-18T07:44:17;100651.94;;;24.17;36.80
25638;BME280;13496;51.040;13.680;2022-07-18T07:49:19;100657.88;;;24.19;36.93
25638;BME280;13496;51.040;13.680;2022-07-18T07:54:21;100653.56;;;24.18;36.71
25638;BME280;13496;51.040;13.680;2022-07-18T07:59:22;100640.13;;;24.19;36.72
25638;BME280;13496;51.040;13.680;2022-07-18T08:04:24;100638.91;;;24.22;36.79
25638;BME280;13496;51.040;13.680;2022-07-18T08:09:26;100638.47;;;24.25;36.81
25638;BME280;13496;51.040;13.680;2022-07-18T08:14:28;100632.34;;;24.24;36.96
25638;BME280;13496;51.040;13.680;2022-07-18T08:19:30;100638.47;;;24.25;36.83
25638;BME280;13496;51.040;13.680;2022-07-18T08:24:31;100624.22;;;24.26;36.61
25638;BME280;13496;51.040;13.680;2022-07-18T08:29:33;100631.75;;;24.29;36.64
25638;BME280;13496;51.040;13.680;2022-07-18T08:34:35;100630.75;;;24.30;36.47
25638;BME280;13496;51.040;13.680;2022-07-18T08:39:36;100625.44;;;24.30;36.74
25638;BME280;13496;51.040;13.680;2022-07-18T08:44:38;100614.41;;;24.33;36.64
25638;BME280;13496;51.040;13.680;2022-07-18T08:49:41;100621.34;;;24.34;36.51
25638;BME280;13496;51.040;13.680;2022-07-18T08:54:43;100625.22;;;24.38;36.63
25638;BME280;13496;51.040;13.680;2022-07-18T08:59:45;100613.44;;;24.41;36.21
25638;BME280;13496;51.040;13.680;2022-07-18T09:04:47;100609.97;;;24.40;36.47
25638;BME280;13496;51.040;13.680;2022-07-18T09:09:59;100606.88;;;24.43;36.52
25638;BME280;13496;51.040;13.680;2022-07-18T09:15:05;100599.75;;;24.44;36.58
25638;BME280;13496;51.040;13.680;2022-07-18T09:20:12;100593.59;;;24.50;36.64
25638;BME280;13496;51.040;13.680;2022-07-18T09:25:17;100590.75;;;24.51;36.47
25638;BME280;13496;51.040;13.680;2022-07-18T09:30:23;100584.44;;;24.52;36.41
25638;BME280;13496;51.040;13.680;2022-07-18T09:35:27;100582.19;;;24.56;36.41
25638;BME280;13496;51.040;13.680;2022-07-18T09:40:40;100580.13;;;24.58;36.44
25638;BME280;13496;51.040;13.680;2022-07-18T09:45:47;100583.78;;;24.63;36.26
25638;BME280;13496;51.040;13.680;2022-07-18T09:50:54;100581.31;;;24.69;36.36
25638;BME280;13496;51.040;13.680;2022-07-18T09:56:02;100568.25;;;24.67;36.18
25638;BME280;13496;51.040;13.680;2022-07-18T10:01:06;100568.66;;;24.71;36.17
25638;BME280;13496;51.040;13.680;2022-07-18T10:06:09;100584.19;;;24.74;36.20
25638;BME280;13496;51.040;13.680;2022-07-18T10:11:11;100581.72;;;24.72;36.12
25638;BME280;13496;51.040;13.680;2022-07-18T10:16:13;100577.84;;;24.75;36.10
25638;BME280;13496;51.040;13.680;2022-07-18T10:21:19;100574.38;;;24.81;36.18
25638;BME280;13496;51.040;13.680;2022-07-18T10:26:23;100571.88;;;24.86;35.96
25638;BME280;13496;51.040;13.680;2022-07-18T10:32:01;100568.00;;;24.89;36.06
25638;BME280;13496;51.040;13.680;2022-07-18T10:47:12;100567.53;;;24.98;36.31
25638;BME280;13496;51.040;13.680;2022-07-18T10:57:35;100557.13;;;25.03;36.13
25638;BME280;13496;51.040;13.680;2022-07-18T11:02:48;100548.94;;;25.12;36.14
25638;BME280;13496;51.040;13.680;2022-07-18T11:18:27;100534.56;;;25.26;36.20
25638;BME280;13496;51.040;13.680;2022-07-18T11:23:28;100533.69;;;25.32;35.99
25638;BME280;13496;51.040;13.680;2022-07-18T11:28:30;100533.06;;;25.37;35.84
25638;BME280;13496;51.040;13.680;2022-07-18T11:33:35;100525.50;;;25.40;36.13
25638;BME280;13496;51.040;13.680;2022-07-18T11:38:46;100524.63;;;25.46;36.10
25638;BME280;13496;51.040;13.680;2022-07-18T11:43:49;100514.97;;;25.52;36.23
25638;BME280;13496;51.040;13.680;2022-07-18T11:49:03;100513.72;;;25.54;35.85
25638;BME280;13496;51.040;13.680;2022-07-18T11:54:05;100509.59;;;25.58;36.08
25638;BME280;13496;51.040;13.680;2022-07-18T11:59:07;100511.41;;;25.65;36.32
25638;BME280;13496;51.040;13.680;2022-07-18T12:04:16;100493.97;;;25.69;36.09
25638;BME280;13496;51.040;13.680;2022-07-18T12:09:26;100493.78;;;25.70;36.17
25638;BME280;13496;51.040;13.680;2022-07-18T12:14:28;100493.19;;;25.68;35.98
25638;BME280;13496;51.040;13.680;2022-07-18T12:19:38;100490.09;;;25.71;36.08
25638;BME280;13496;51.040;13.680;2022-07-18T12:24:41;100499.03;;;25.77;36.08
25638;BME280;13496;51.040;13.680;2022-07-18T12:35:22;100485.06;;;25.88;35.86
25638;BME280;13496;51.040;13.680;2022-07-18T12:40:26;100481.97;;;25.91;35.83
25638;BME280;13496;51.040;13.680;2022-07-18T12:45:28;100472.31;;;25.97;35.85
25638;BME280;13496;51.040;13.680;2022-07-18T12:50:29;100471.88;;;26.00;36.01
25638;BME280;13496;51.040;13.680;2022-07-18T12:55:31;100473.25;;;26.02;35.75
25638;BME280;13496;51.040;13.680;2022-07-18T13:00:33;100479.63;;;26.01;36.31
25638;BME280;13496;51.040;13.680;2022-07-18T13:05:35;100468.69;;;26.10;36.03
25638;BME280;13496;51.040;13.680;2022-07-18T13:10:38;100468.84;;;26.15;35.92
25638;BME280;13496;51.040;13.680;2022-07-18T13:15:40;100467.00;;;26.15;35.80
25638;BME280;13496;51.040;13.680;2022-07-18T13:20:42;100464.50;;;26.20;35.73
25638;BME280;13496;51.040;13.680;2022-07-18T13:25:43;100463.25;;;26.23;36.15
25638;BME280;13496;51.040;13.680;2022-07-18T13:30:45;100463.81;;;26.25;36.02
25638;BME280;13496;51.040;13.680;2022-07-18T13:35:47;100452.75;;;26.28;36.04
25638;BME280;13496;51.040;13.680;2022-07-18T13:40:48;100451.25;;;26.32;35.92
25638;BME280;13496;51.040;13.680;2022-07-18T13:45:51;100455.34;;;26.35;36.05
25638;BME280;13496;51.040;13.680;2022-07-18T13:50:53;100446.91;;;26.38;35.97
25638;BME280;13496;51.040;13.680;2022-07-18T13:55:55;100449.69;;;26.43;36.27
25638;BME280;13496;51.040;13.680;2022-07-18T14:00:57;100443.13;;;26.45;36.11
25638;BME280;13496;51.040;13.680;2022-07-18T14:05:59;100441.06;;;26.47;36.07
25638;BME280;13496;51.040;13.680;2022-07-18T14:11:00;100441.91;;;26.48;36.09
25638;BME280;13496;51.040;13.680;2022-07-18T14:16:02;100443.09;;;26.52;36.13
25638;BME280;13496;51.040;13.680;2022-07-18T14:21:04;100437.31;;;26.55;36.03
25638;BME280;13496;51.040;13.680;2022-07-18T14:26:06;100435.22;;;26.57;36.08
25638;BME280;13496;51.040;13.680;2022-07-18T14:31:07;100426.00;;;26.60;35.99
25638;BME280;13496;51.040;13.680;2022-07-18T14:36:09;100428.22;;;26.63;36.14
25638;BME280;13496;51.040;13.680;2022-07-18T14:41:11;100421.59;;;26.65;35.87
25638;BME280;13496;51.040;13.680;2022-07-18T14:46:13;100414.78;;;26.69;36.10
25638;BME280;13496;51.040;13.680;2022-07-18T14:51:15;100406.59;;;26.71;36.09
25638;BME280;13496;51.040;13.680;2022-07-18T14:56:16;100401.38;;;26.76;36.26
25638;BME280;13496;51.040;13.680;2022-07-18T15:01:18;100402.00;;;26.78;36.17
25638;BME280;13496;51.040;13.680;2022-07-18T15:06:21;100400.50;;;26.82;36.36
25638;BME280;13496;51.040;13.680;2022-07-18T15:11:22;100407.00;;;26.86;36.06
25638;BME280;13496;51.040;13.680;2022-07-18T15:16:25;100398.56;;;26.89;36.14
25638;BME280;13496;51.040;13.680;2022-07-18T15:21:27;100398.66;;;26.94;35.87
25638;BME280;13496;51.040;13.680;2022-07-18T15:26:29;100394.94;;;26.95;36.07
25638;BME280;13496;51.040;13.680;2022-07-18T15:31:30;100396.97;;;27.00;36.05
25638;BME280;13496;51.040;13.680;2022-07-18T15:36:32;100397.31;;;27.03;35.70
25638;BME280;13496;51.040;13.680;2022-07-18T15:41:34;100384.34;;;27.07;36.27
25638;BME280;13496;51.040;13.680;2022-07-18T15:46:35;100373.69;;;27.07;36.42
25638;BME280;13496;51.040;13.680;2022-07-18T15:51:38;100372.41;;;27.10;36.05
25638;BME280;13496;51.040;13.680;2022-07-18T15:56:43;100373.59;;;27.14;35.93
25638;BME280;13496;51.040;13.680;2022-07-18T16:01:45;100370.47;;;27.17;36.33
25638;BME280;13496;51.040;13.680;2022-07-18T16:06:49;100367.81;;;27.17;35.98
25638;BME280;13496;51.040;13.680;2022-07-18T16:11:51;100366.31;;;27.21;36.07
25638;BME280;13496;51.040;13.680;2022-07-18T16:16:52;100365.66;;;27.25;35.95
25638;BME280;13496;51.040;13.680;2022-07-18T16:21:54;100356.13;;;27.30;36.07
25638;BME280;13496;51.040;13.680;2022-07-18T16:26:56;100362.38;;;27.35;36.08
25638;BME280;13496;51.040;13.680;2022-07-18T16:31:58;100348.25;;;27.35;35.77
25638;BME280;13496;51.040;13.680;2022-07-18T16:36:59;100349.66;;;27.37;36.14
25638;BME280;13496;51.040;13.680;2022-07-18T16:42:01;100354.53;;;27.40;36.18
25638;BME280;13496;51.040;13.680;2022-07-18T16:47:03;100344.53;;;27.47;36.31
25638;BME280;13496;51.040;13.680;2022-07-18T16:52:06;100335.38;;;27.43;35.99
25638;BME280;13496;51.040;13.680;2022-07-18T16:57:08;100333.88;;;27.47;35.93
25638;BME280;13496;51.040;13.680;2022-07-18T17:02:10;100334.34;;;27.44;36.38
25638;BME280;13496;51.040;13.680;2022-07-18T17:07:12;100325.31;;;27.45;36.23
25638;BME280;13496;51.040;13.680;2022-07-18T17:12:14;100331.19;;;27.47;36.21
25638;BME280;13496;51.040;13.680;2022-07-18T17:17:16;100326.72;;;27.48;36.15
25638;BME280;13496;51.040;13.680;2022-07-18T17:22:22;100315.34;;;27.53;36.19
25638;BME280;13496;51.040;13.680;2022-07-18T17:27:27;100321.72;;;27.52;36.17
25638;BME280;13496;51.040;13.680;2022-07-18T17:32:29;100319.06;;;27.52;36.35
25638;BME280;13496;51.040;13.680;2022-07-18T17:37:32;100319.50;;;27.48;36.07
25638;BME280;13496;51.040;13.680;2022-07-18T17:42:34;100318.13;;;27.46;36.01
25638;BME280;13496;51.040;13.680;2022-07-18T17:47:36;100305.94;;;27.50;36.07
25638;BME280;13496;51.040;13.680;2022-07-18T17:52:38;100300.84;;;27.48;36.43
25638;BME280;13496;51.040;13.680;2022-07-18T17:57:40;100294.00;;;27.53;36.02
25638;BME280;13496;51.040;13.680;2022-07-18T18:02:42;100293.41;;;27.50;36.32
25638;BME280;13496;51.040;13.680;2022-07-18T18:07:44;100294.72;;;27.48;36.17
25638;BME280;13496;51.040;13.680;2022-07-18T18:12:46;100294.38;;;27.44;36.47
25638;BME280;13496;51.040;13.680;2022-07-18T18:17:48;100294.59;;;27.43;36.19
25638;BME280;13496;51.040;13.680;2022-07-18T18:22:50;100305.16;;;27.38;36.37
25638;BME280;13496;51.040;13.680;2022-07-18T18:27:52;100308.28;;;27.35;36.57
25638;BME280;13496;51.040;13.680;2022-07-18T18:32:54;100304.00;;;27.34;36.36
25638;BME280;13496;51.040;13.680;2022-07-18T18:37:55;100304.00;;;27.34;36.49
25638;BME280;13496;51.040;13.680;2022-07-18T18:42:57;100295.41;;;27.32;36.71
25638;BME280;13496;51.040;13.680;2022-07-18T18:47:59;100288.69;;;27.29;36.43
25638;BME280;13496;51.040;13.680;2022-07-18T18:53:01;100298.19;;;27.25;36.84
25638;BME280;13496;51.040;13.680;2022-07-18T18:58:02;100300.28;;;27.23;36.68
25638;BME280;13496;51.040;13.680;2022-07-18T19:03:04;100304.81;;;27.22;37.03
25638;BME280;13496;51.040;13.680;2022-07-18T19:08:07;100299.69;;;27.21;36.89
25638;BME280;13496;51.040;13.680;2022-07-18T19:13:09;100303.41;;;27.20;36.84
25638;BME280;13496;51.040;13.680;2022-07-18T19:18:11;100304.47;;;27.19;36.61
25638;BME280;13496;51.040;13.680;2022-07-18T19:23:14;100298.53;;;27.17;36.93
25638;BME280;13496;51.040;13.680;2022-07-18T19:28:15;100306.78;;;27.15;37.10
25638;BME280;13496;51.040;13.680;2022-07-18T19:33:17;100305.38;;;27.13;36.67
25638;BME280;13496;51.040;13.680;2022-07-18T19:38:19;100310.72;;;27.13;36.72
25638;BME280;13496;51.040;13.680;2022-07-18T19:43:21;100309.28;;;27.10;36.73
25638;BME280;13496;51.040;13.680;2022-07-18T19:48:22;100319.38;;;27.08;37.07
25638;BME280;13496;51.040;13.680;2022-07-18T19:53:24;100316.91;;;27.07;37.04
25638;BME280;13496;51.040;13.680;2022-07-18T19:58:26;100321.69;;;27.05;36.86
25638;BME280;13496;51.040;13.680;2022-07-18T20:03:27;100320.06;;;27.03;36.86
25638;BME280;13496;51.040;13.680;2022-07-18T20:08:29;100316.81;;;27.01;36.99
25638;BME280;13496;51.040;13.680;2022-07-18T20:13:31;100319.47;;;27.01;36.73
25638;BME280;13496;51.040;13.680;2022-07-18T20:18:33;100317.84;;;27.00;37.05
25638;BME280;13496;51.040;13.680;2022-07-18T20:23:34;100317.25;;;26.98;36.91
25638;BME280;13496;51.040;13.680;2022-07-18T20:28:36;100318.31;;;26.97;36.80
25638;BME280;13496;51.040;13.680;2022-07-18T20:33:38;100311.38;;;26.96;36.81
25638;BME280;13496;51.040;13.680;2022-07-18T20:38:39;100309.72;;;26.95;36.87
25638;BME280;13496;51.040;13.680;2022-07-18T20:43:41;100303.84;;;26.93;36.85
25638;BME280;13496;51.040;13.680;2022-07-18T20:48:43;100304.88;;;26.92;37.01
25638;BME280;13496;51.040;13.680;2022-07-18T20:53:45;100305.34;;;26.89;36.80
25638;BME280;13496;51.040;13.680;2022-07-18T20:58:46;100303.50;;;26.90;36.98
25638;BME280;13496;51.040;13.680;2022-07-18T21:03:48;100295.16;;;26.86;37.21
25638;BME280;13496;51.040;13.680;2022-07-18T21:08:50;100293.75;;;26.84;36.86
25638;BME280;13496;51.040;13.680;2022-07-18T21:13:51;100309.72;;;26.84;36.97
25638;BME280;13496;51.040;13.680;2022-07-18T21:18:53;100306.50;;;26.82;37.03
25638;BME280;13496;51.040;13.680;2022-07-18T21:23:55;100306.00;;;26.73;36.91
25638;BME280;13496;51.040;13.680;2022-07-18T21:28:57;100308.66;;;26.73;36.82
25638;BME280;13496;51.040;13.680;2022-07-18T21:34:01;100306.59;;;26.75;36.72
25638;BME280;13496;51.040;13.680;2022-07-18T21:39:03;100309.69;;;26.72;37.03
25638;BME280;13496;51.040;13.680;2022-07-18T21:44:04;100322.66;;;26.68;37.17
25638;BME280;13496;51.040;13.680;2022-07-18T21:49:06;100319.63;;;26.65;36.96
25638;BME280;13496;51.040;13.680;2022-07-18T21:54:08;100315.94;;;26.66;37.01
25638;BME280;13496;51.040;13.680;2022-07-18T21:59:10;100325.78;;;26.65;36.88
25638;BME280;13496;51.040;13.680;2022-07-18T22:04:12;100315.94;;;26.66;36.99
25638;BME280;13496;51.040;13.680;2022-07-18T22:09:13;100321.50;;;26.64;36.57
25638;BME280;13496;51.040;13.680;2022-07-18T22:14:15;100305.75;;;26.63;36.68
25638;BME280;13496;51.040;13.680;2022-07-18T22:19:17;100306.66;;;26.57;37.09
25638;BME280;13496;51.040;13.680;2022-07-18T22:24:18;100300.53;;;26.56;36.54
25638;BME280;13496;51.040;13.680;2022-07-18T22:29:20;100303.41;;;26.54;36.62
25638;BME280;13496;51.040;13.680;2022-07-18T22:34:22;100298.91;;;26.55;36.79
25638;BME280;13496;51.040;13.680;2022-07-18T22:39:23;100286.06;;;26.52;36.70
25638;BME280;13496;51.040;13.680;2022-07-18T22:44:25;100281.31;;;26.54;36.74
25638;BME280;13496;51.040;13.680;2022-07-18T22:49:27;100280.94;;;26.50;36.80
25638;BME280;13496;51.040;13.680;2022-07-18T22:54:29;100274.00;;;26.49;36.55
25638;BME280;13496;51.040;13.680;2022-07-18T22:59:31;100277.72;;;26.48;36.57
25638;BME280;13496;51.040;13.680;2022-07-18T23:04:32;100274.47;;;26.46;36.96
25638;BME280;13496;51.040;13.680;2022-07-18T23:09:34;100272.81;;;26.45;36.84
25638;BME280;13496;51.040;13.680;2022-07-18T23:14:36;100264.22;;;26.43;36.64
25638;BME280;13496;51.040;13.680;2022-07-18T23:19:37;100257.28;;;26.42;36.54
25638;BME280;13496;51.040;13.680;2022-07-18T23:24:39;100251.16;;;26.42;36.61
25638;BME280;13496;51.040;13.680;2022-07-18T23:29:41;100251.63;;;26.39;36.70
25638;BME280;13496;51.040;13.680;2022-07-18T23:34:43;100256.13;;;26.38;36.83
25638;BME280;13496;51.040;13.680;2022-07-18T23:39:44;100254.50;;;26.37;36.85
25638;BME280;13496;51.040;13.680;2022-07-18T23:44:46;100255.78;;;26.35;36.77
25638;BME280;13496;51.040;13.680;2022-07-18T23:49:48;100252.50;;;26.33;36.50
25638;BME280;13496;51.040;13.680;2022-07-18T23:54:50;100256.00;;;26.33;36.65
25638;BME280;13496;51.040;13.680;2022-07-18T23:59:51;100248.25;;;26.31;36.67
